Time;durP1;ratioP1;P1;durP2;ratioP2;P2;SDS_P1;SDS_P2;PMS_P1;PMS_P2;Temp;Humidity;BMP_temperature;BMP_pressure;BME280_temperature;BME280_humidity;BME280_pressure;Samples;Min_cycle;Max_cycle;Signal;HPM_P1;HPM_P2
2023/12/20 00:01:35;;;;;;;40.93;18.40;;;;;;;6.55;79.20;101079.97;5051378;28;20033;-77
2023/12/20 00:04:01;;;;;;;38.13;17.45;;;;;;;6.55;79.48;101069.50;5049116;28;20029;-76
2023/12/20 00:06:26;;;;;;;34.30;16.93;;;;;;;6.55;78.96;101058.16;5051834;28;20037;-77
2023/12/20 00:08:51;;;;;;;37.07;18.70;;;;;;;6.55;79.44;101053.78;5035520;28;20109;-77
2023/12/20 00:11:17;;;;;;;40.97;20.10;;;;;;;6.55;78.99;101052.94;5032089;28;20671;-77
2023/12/20 00:13:42;;;;;;;38.17;18.50;;;;;;;6.54;79.80;101054.63;5031917;28;20136;-77
2023/12/20 00:16:07;;;;;;;37.43;19.27;;;;;;;6.56;79.47;101055.56;5031820;28;20064;-77
2023/12/20 00:18:33;;;;;;;38.53;20.20;;;;;;;6.58;79.71;101045.16;5031795;28;20035;-77
2023/12/20 00:20:58;;;;;;;40.87;21.27;;;;;;;6.58;79.64;101046.00;5030532;28;20117;-78
2023/12/20 00:23:24;;;;;;;39.53;18.83;;;;;;;6.58;79.46;101048.63;5043924;28;20271;-78
2023/12/20 00:25:49;;;;;;;43.27;19.87;;;;;;;6.61;79.30;101039.97;5050254;28;20052;-78
2023/12/20 00:28:15;;;;;;;77.07;32.80;;;;;;;6.63;79.63;101026.91;5050381;28;20255;-77
2023/12/20 00:30:40;;;;;;;50.63;24.13;;;;;;;6.63;78.91;101021.69;5051646;28;20029;-78
2023/12/20 00:33:05;;;;;;;34.50;19.03;;;;;;;6.61;79.37;101019.91;5051542;28;20098;-78
2023/12/20 00:35:31;;;;;;;34.87;17.33;;;;;;;6.60;79.09;101018.16;5051423;28;20116;-77
2023/12/20 00:37:56;;;;;;;35.43;15.60;;;;;;;6.63;79.71;101016.44;5051384;28;20104;-77
2023/12/20 00:40:22;;;;;;;34.70;16.97;;;;;;;6.61;79.81;101009.44;5051683;28;20432;-77
2023/12/20 00:42:47;;;;;;;30.40;15.35;;;;;;;6.64;79.51;101019.13;5051174;28;20039;-78
2023/12/20 00:45:14;;;;;;;30.43;15.07;;;;;;;6.65;79.42;101006.94;5051445;28;20047;-78
2023/12/20 00:47:39;;;;;;;26.02;12.82;;;;;;;6.67;79.54;101007.84;5051427;28;20063;-78
2023/12/20 00:50:06;;;;;;;27.70;11.82;;;;;;;6.69;79.00;100995.69;5051250;28;20037;-78
2023/12/20 00:52:31;;;;;;;27.83;13.23;;;;;;;6.68;79.59;100984.31;5051123;28;20271;-78
2023/12/20 00:54:56;;;;;;;25.00;13.10;;;;;;;6.69;79.61;100986.09;5051185;28;20064;-77
2023/12/20 00:57:22;;;;;;;28.90;13.53;;;;;;;6.69;79.06;100974.75;5051075;28;20546;-78
2023/12/20 00:59:47;;;;;;;27.57;12.90;;;;;;;6.70;79.08;100981.75;5050946;28;20051;-77
2023/12/20 01:02:13;;;;;;;28.03;13.40;;;;;;;6.73;79.07;100976.56;5049695;28;20021;-77
2023/12/20 01:04:38;;;;;;;31.57;14.03;;;;;;;6.73;79.76;100984.44;5051028;28;20491;-77
2023/12/20 01:07:03;;;;;;;31.20;13.43;;;;;;;6.74;79.29;100983.59;5050940;28;20469;-78
2023/12/20 01:09:29;;;;;;;27.20;11.83;;;;;;;6.75;78.99;100980.13;5051190;28;20029;-77
2023/12/20 01:11:54;;;;;;;24.67;12.23;;;;;;;6.75;79.34;100973.16;5050764;28;20027;-77
2023/12/20 01:14:20;;;;;;;23.17;11.27;;;;;;;6.76;78.96;100971.41;5050641;28;20390;-78
2023/12/20 01:16:46;;;;;;;25.77;11.85;;;;;;;6.78;79.27;100968.84;5050606;28;20390;-78
2023/12/20 01:19:11;;;;;;;27.23;13.57;;;;;;;6.79;79.72;100971.47;5050364;28;20031;-77
2023/12/20 01:21:37;;;;;;;34.25;14.32;;;;;;;6.78;79.60;100969.72;5050485;28;20400;-78
2023/12/20 01:24:02;;;;;;;33.50;14.40;;;;;;;6.76;79.85;100955.69;5049646;28;20071;-77
2023/12/20 01:26:27;;;;;;;33.33;15.63;;;;;;;6.77;79.06;100962.72;5050339;28;20053;-78
2023/12/20 01:28:53;;;;;;;32.50;14.17;;;;;;;6.78;79.27;100959.25;5050491;28;20120;-78
2023/12/20 01:31:18;;;;;;;34.50;15.07;;;;;;;6.80;79.45;100956.66;5050402;28;20260;-78
2023/12/20 01:33:44;;;;;;;28.43;14.53;;;;;;;6.81;79.81;100959.31;5050717;28;20063;-78
2023/12/20 01:36:09;;;;;;;27.20;13.67;;;;;;;6.81;79.48;100959.31;5050537;28;20167;-77
2023/12/20 01:38:34;;;;;;;31.30;14.20;;;;;;;6.81;79.28;100954.06;5050171;28;20025;-78
2023/12/20 01:41:00;;;;;;;27.05;13.50;;;;;;;6.82;79.08;100954.97;5050164;28;20071;-77
2023/12/20 01:43:25;;;;;;;30.40;13.73;;;;;;;6.83;79.22;100951.50;5050196;28;20052;-78
2023/12/20 01:45:51;;;;;;;29.03;14.00;;;;;;;6.83;79.71;100947.13;5050230;28;20032;-78
2023/12/20 01:48:19;;;;;;;32.05;13.93;;;;;;;6.83;79.34;100941.91;5048621;28;20033;-78
2023/12/20 01:50:45;;;;;;;29.02;14.07;;;;;;;6.85;79.29;100941.94;5048992;28;20116;-77
2023/12/20 01:53:12;;;;;;;26.83;12.87;;;;;;;6.83;79.29;100936.66;5050091;28;20136;-77
2023/12/20 01:55:40;;;;;;;27.42;13.32;;;;;;;6.85;79.41;100939.31;5050053;28;20029;-77
2023/12/20 01:58:11;;;;;;;24.65;12.13;;;;;;;6.83;79.71;100931.41;5050111;28;20013;-78
2023/12/20 02:00:37;;;;;;;20.88;11.38;;;;;;;6.83;79.18;100939.28;5049843;28;20074;-78
2023/12/20 02:03:02;;;;;;;25.53;11.87;;;;;;;6.84;79.53;100921.84;5049861;28;20036;-77
2023/12/20 02:05:29;;;;;;;22.85;11.68;;;;;;;6.86;79.55;100926.25;5049914;28;20478;-77
2023/12/20 02:07:55;;;;;;;26.33;12.05;;;;;;;6.85;80.10;100919.25;5050001;28;20401;-78
2023/12/20 02:10:20;;;;;;;21.93;11.00;;;;;;;6.85;79.92;100918.38;5049845;28;20033;-78
2023/12/20 02:12:46;;;;;;;22.37;10.87;;;;;;;6.86;79.77;100915.78;5049958;28;20106;-78
2023/12/20 02:15:11;;;;;;;21.27;11.05;;;;;;;6.86;80.01;100907.06;5049405;28;20021;-78
2023/12/20 02:17:39;;;;;;;21.90;10.80;;;;;;;6.87;79.44;100901.88;5049607;28;20025;-78
2023/12/20 02:20:05;;;;;;;20.63;10.98;;;;;;;6.87;79.47;100896.63;5049550;28;20024;-77
2023/12/20 02:22:31;;;;;;;22.17;11.80;;;;;;;6.87;79.70;100900.97;5049679;28;20055;-78
2023/12/20 02:24:56;;;;;;;21.02;11.30;;;;;;;6.88;79.57;100890.53;5048443;28;20079;-78
2023/12/20 02:27:23;;;;;;;24.63;11.77;;;;;;;6.88;79.30;100887.94;5049527;28;20056;-78
2023/12/20 02:29:49;;;;;;;24.08;11.98;;;;;;;6.88;79.44;100877.44;5049908;28;20025;-78
2023/12/20 02:32:16;;;;;;;25.00;11.20;;;;;;;6.89;79.39;100879.22;5048282;28;20083;-78
2023/12/20 02:34:42;;;;;;;23.90;11.53;;;;;;;6.91;79.58;100883.59;5049662;28;20021;-78
2023/12/20 02:37:07;;;;;;;24.83;11.73;;;;;;;6.92;79.66;100877.50;5049393;28;20116;-79
2023/12/20 02:39:33;;;;;;;25.20;11.70;;;;;;;6.91;80.11;100876.63;5049595;28;20036;-78
2023/12/20 02:41:58;;;;;;;22.03;11.17;;;;;;;6.92;80.16;100877.50;5049185;28;20032;-78
2023/12/20 02:44:24;;;;;;;25.75;11.60;;;;;;;6.92;79.47;100867.03;5052453;28;20067;-78
2023/12/20 02:46:50;;;;;;;19.93;10.97;;;;;;;6.93;79.83;100869.66;5055888;28;20033;-78
2023/12/20 02:49:15;;;;;;;21.15;11.05;;;;;;;6.93;79.79;100869.66;5055923;28;20112;-78
2023/12/20 02:51:40;;;;;;;23.30;11.07;;;;;;;6.93;79.73;100861.81;5055868;28;20113;-78
2023/12/20 02:54:06;;;;;;;24.23;11.77;;;;;;;6.94;79.34;100862.72;5055897;28;20485;-78
2023/12/20 02:56:35;;;;;;;21.17;11.10;;;;;;;6.94;80.13;100854.84;5056339;28;20442;-78
2023/12/20 02:59:00;;;;;;;21.17;11.32;;;;;;;6.94;79.83;100845.25;5055816;28;20028;-78
2023/12/20 03:01:27;;;;;;;24.40;12.95;;;;;;;6.93;79.85;100846.09;5056320;28;20033;-78
2023/12/20 03:03:52;;;;;;;24.47;12.07;;;;;;;6.93;80.63;100843.50;5055915;28;20107;-78
2023/12/20 03:06:18;;;;;;;22.48;12.48;;;;;;;6.92;80.59;100840.84;5055814;28;20150;-77
2023/12/20 03:08:44;;;;;;;23.03;12.40;;;;;;;6.93;80.07;100845.25;5055830;28;20067;-78
2023/12/20 03:11:10;;;;;;;26.45;13.00;;;;;;;6.93;79.95;100837.38;5055529;28;20468;-78
2023/12/20 03:13:35;;;;;;;25.40;13.20;;;;;;;6.92;80.45;100825.16;5055431;28;20025;-78
2023/12/20 03:16:01;;;;;;;25.40;12.93;;;;;;;6.92;80.02;100825.16;5056100;28;20021;-78
2023/12/20 03:18:28;;;;;;;23.20;12.23;;;;;;;6.93;80.51;100819.06;5055855;28;20647;-78
2023/12/20 03:20:53;;;;;;;25.55;12.52;;;;;;;6.92;80.40;100830.38;5055858;28;20021;-78
2023/12/20 03:23:19;;;;;;;27.53;12.83;;;;;;;6.93;80.90;100826.91;5055964;28;20040;-78
2023/12/20 03:25:44;;;;;;;27.83;12.77;;;;;;;6.92;80.36;100831.25;5054184;28;20029;-77
2023/12/20 03:28:09;;;;;;;24.43;12.73;;;;;;;6.94;80.56;100828.69;5055772;28;20492;-77
2023/12/20 03:30:35;;;;;;;25.97;12.83;;;;;;;6.93;80.81;100821.69;5055525;28;20028;-78
2023/12/20 03:33:00;;;;;;;24.60;13.23;;;;;;;6.91;80.68;100826.88;5055733;28;20497;-78
2023/12/20 03:35:26;;;;;;;25.83;13.47;;;;;;;6.91;80.85;100813.78;5055686;28;20256;-78
2023/12/20 03:37:51;;;;;;;29.97;15.20;;;;;;;6.92;80.73;100814.69;5055771;28;20028;-78
2023/12/20 03:40:16;;;;;;;24.90;13.93;;;;;;;6.91;81.39;100812.91;5055500;28;20025;-78
2023/12/20 03:42:42;;;;;;;23.77;13.63;;;;;;;6.91;81.22;100819.00;5055630;28;20021;-78
2023/12/20 03:45:08;;;;;;;21.93;11.90;;;;;;;6.89;81.73;100819.00;5055242;28;20754;-78
2023/12/20 03:47:33;;;;;;;23.58;12.15;;;;;;;6.89;82.05;100823.34;5055254;28;20574;-78
2023/12/20 03:49:59;;;;;;;22.83;11.67;;;;;;;6.89;81.94;100818.09;5055526;28;20224;-78
2023/12/20 03:52:24;;;;;;;22.03;11.60;;;;;;;6.89;81.27;100813.75;5055285;28;20447;-78
2023/12/20 03:54:49;;;;;;;20.63;11.10;;;;;;;6.91;82.16;100812.91;5054327;28;20031;-78
2023/12/20 03:57:15;;;;;;;21.47;10.93;;;;;;;6.88;81.71;100808.47;5052266;28;20348;-78
2023/12/20 03:59:40;;;;;;;22.40;10.83;;;;;;;6.89;82.08;100811.16;5052243;28;20025;-78
2023/12/20 04:02:06;;;;;;;19.95;11.02;;;;;;;6.89;81.85;100803.28;5052253;28;20033;-79
2023/12/20 04:04:31;;;;;;;20.87;11.13;;;;;;;6.89;81.43;100795.44;5052375;28;20036;-78
2023/12/20 04:06:57;;;;;;;22.70;11.43;;;;;;;6.91;81.96;100786.72;5051725;28;20032;-78
2023/12/20 04:09:22;;;;;;;20.13;11.75;;;;;;;6.92;82.35;100788.50;5052240;28;20039;-79
2023/12/20 04:11:47;;;;;;;23.63;11.30;;;;;;;6.92;82.75;100785.88;5051854;28;20489;-78
2023/12/20 04:14:13;;;;;;;18.97;11.30;;;;;;;6.93;82.44;100791.13;5050350;28;20229;-78
2023/12/20 04:16:39;;;;;;;21.23;10.80;;;;;;;6.95;82.44;100788.53;5052025;28;20062;-79
2023/12/20 04:19:04;;;;;;;21.13;10.93;;;;;;;6.96;83.33;100785.06;5050608;28;20913;-78
2023/12/20 04:21:30;;;;;;;19.15;10.40;;;;;;;6.98;83.01;100778.13;5051850;28;20036;-78
2023/12/20 04:23:56;;;;;;;18.07;10.27;;;;;;;6.99;82.89;100780.78;5050647;28;20026;-78
2023/12/20 04:26:21;;;;;;;20.80;10.10;;;;;;;7.01;83.16;100772.94;5051525;28;20041;-78
2023/12/20 04:28:46;;;;;;;20.90;9.20;;;;;;;7.03;83.49;100772.13;5051368;28;20091;-78
2023/12/20 04:31:12;;;;;;;23.77;10.30;;;;;;;7.07;83.38;100780.91;5051517;28;20021;-78
2023/12/20 04:33:37;;;;;;;20.20;10.40;;;;;;;7.09;83.53;100776.56;5051611;28;20025;-79
2023/12/20 04:36:04;;;;;;;19.90;9.97;;;;;;;7.10;84.06;100778.34;5051382;28;20025;-78
2023/12/20 04:38:29;;;;;;;25.35;9.85;;;;;;;7.11;83.83;100777.47;5050410;28;20021;-79
2023/12/20 04:40:55;;;;;;;19.37;9.03;;;;;;;7.13;83.80;100773.19;5050585;28;20037;-78
2023/12/20 04:43:20;;;;;;;19.65;9.82;;;;;;;7.16;84.46;100778.47;5050007;28;20060;-78
2023/12/20 04:45:45;;;;;;;18.13;9.30;;;;;;;7.17;84.22;100769.75;5051282;28;20043;-79
2023/12/20 04:48:12;;;;;;;17.97;8.57;;;;;;;7.18;84.31;100771.53;5051340;28;20031;-78
2023/12/20 04:50:37;;;;;;;15.80;8.07;;;;;;;7.20;84.29;100774.16;5051164;28;20025;-78
2023/12/20 04:53:02;;;;;;;15.13;7.30;;;;;;;7.22;84.52;100769.81;5051245;28;20029;-79
2023/12/20 04:55:28;;;;;;;14.43;7.17;;;;;;;7.25;84.53;100766.38;5051328;28;20445;-78
2023/12/20 04:57:54;;;;;;;17.77;8.00;;;;;;;7.27;84.54;100762.06;5051191;28;20033;-78
2023/12/20 05:00:20;;;;;;;14.60;7.03;;;;;;;7.27;84.46;100759.44;5051263;28;20632;-78
2023/12/20 05:02:45;;;;;;;12.40;6.53;;;;;;;7.29;84.80;100757.72;5051115;28;20059;-78
2023/12/20 05:05:10;;;;;;;12.40;6.37;;;;;;;7.32;85.09;100757.78;5050905;28;20397;-78
2023/12/20 05:07:36;;;;;;;15.23;6.80;;;;;;;7.33;85.05;100751.69;5050569;28;20116;-79
2023/12/20 05:10:04;;;;;;;14.50;7.40;;;;;;;7.35;85.62;100755.19;5050728;28;20090;-78
2023/12/20 05:12:30;;;;;;;13.82;7.18;;;;;;;7.38;85.46;100752.66;5050688;28;20025;-79
2023/12/20 05:14:55;;;;;;;11.70;6.20;;;;;;;7.39;85.57;100754.44;5050595;28;20033;-78
2023/12/20 05:17:20;;;;;;;10.47;5.40;;;;;;;7.42;85.97;100762.34;5050773;28;20024;-79
2023/12/20 05:19:46;;;;;;;11.90;5.90;;;;;;;7.43;85.92;100764.09;5049386;28;20028;-78
2023/12/20 05:22:11;;;;;;;12.83;5.97;;;;;;;7.44;85.23;100763.25;5050876;28;20040;-79
2023/12/20 05:24:36;;;;;;;13.27;6.77;;;;;;;7.48;85.54;100764.19;5049604;28;20025;-79
2023/12/20 05:27:02;;;;;;;12.82;6.15;;;;;;;7.52;85.55;100768.63;5050194;28;20049;-79
2023/12/20 05:29:27;;;;;;;14.20;6.10;;;;;;;7.54;85.62;100763.38;5050092;28;20052;-79
2023/12/20 05:31:54;;;;;;;10.93;5.63;;;;;;;7.57;85.91;100763.44;5049162;28;20056;-79
2023/12/20 05:34:20;;;;;;;13.57;6.22;;;;;;;7.60;86.44;100760.88;5050356;28;20104;-80
2023/12/20 05:36:45;;;;;;;12.40;6.05;;;;;;;7.65;87.24;100766.19;5050698;28;20132;-79
2023/12/20 05:39:10;;;;;;;10.53;4.80;;;;;;;7.70;86.87;100767.13;5050522;28;20521;-79
2023/12/20 05:41:36;;;;;;;9.23;4.43;;;;;;;7.75;87.06;100768.97;5050220;28;20024;-79
2023/12/20 05:44:01;;;;;;;10.27;4.57;;;;;;;7.83;87.73;100769.09;5048715;28;20032;-79
2023/12/20 05:46:27;;;;;;;12.07;4.03;;;;;;;7.86;87.53;100771.75;5050101;28;20059;-79
2023/12/20 05:48:52;;;;;;;9.63;4.00;;;;;;;7.92;87.80;100775.31;5050041;28;20104;-79
2023/12/20 05:51:18;;;;;;;10.87;4.60;;;;;;;7.96;87.98;100779.78;5050133;28;20469;-79
2023/12/20 05:53:44;;;;;;;11.53;4.93;;;;;;;7.98;88.09;100780.69;5050060;28;20025;-79
2023/12/20 05:56:10;;;;;;;9.60;4.57;;;;;;;7.99;88.19;100783.31;5050230;28;20425;-79
2023/12/20 05:58:36;;;;;;;8.07;3.83;;;;;;;8.03;88.68;100790.38;5049879;28;20024;-79
2023/12/20 06:01:05;;;;;;;10.73;4.38;;;;;;;8.05;88.61;100790.41;5050041;28;20405;-79
2023/12/20 06:03:30;;;;;;;9.77;4.70;;;;;;;8.12;89.30;100794.00;5050129;28;20441;-79
2023/12/20 06:05:56;;;;;;;8.82;4.07;;;;;;;8.16;89.35;100795.81;5049742;28;20029;-79
2023/12/20 06:08:21;;;;;;;7.80;3.30;;;;;;;8.18;88.96;100807.19;5049877;28;20037;-79
2023/12/20 06:10:47;;;;;;;8.17;3.43;;;;;;;8.21;89.20;100811.63;5049995;28;20032;-79
2023/12/20 06:13:13;;;;;;;7.80;3.57;;;;;;;8.21;89.57;100812.50;5049422;28;20017;-79
2023/12/20 06:15:39;;;;;;;7.65;3.10;;;;;;;8.23;89.15;100820.41;5049299;28;20032;-79
2023/12/20 06:18:05;;;;;;;6.45;2.83;;;;;;;8.22;89.33;100824.75;5048879;28;20028;-79
2023/12/20 06:20:31;;;;;;;7.60;3.38;;;;;;;8.24;89.41;100828.28;5049677;28;20454;-79
2023/12/20 06:22:56;;;;;;;7.57;3.37;;;;;;;8.25;89.41;100827.41;5049940;28;20032;-79
2023/12/20 06:25:21;;;;;;;6.57;3.27;;;;;;;8.27;89.76;100824.81;5048804;28;20021;-79
2023/12/20 06:27:47;;;;;;;7.00;3.20;;;;;;;8.28;89.72;100837.94;5049011;28;20049;-79
2023/12/20 06:30:12;;;;;;;6.97;3.60;;;;;;;8.31;89.58;100832.75;5049038;28;20041;-79
2023/12/20 06:32:39;;;;;;;7.97;2.67;;;;;;;8.35;89.60;100838.06;5049456;28;20028;-79
2023/12/20 06:35:05;;;;;;;8.60;3.80;;;;;;;8.37;89.94;100842.44;5036657;28;20064;-78
2023/12/20 06:37:30;;;;;;;12.10;4.00;;;;;;;8.37;90.04;100854.72;5042230;28;20037;-79
2023/12/20 06:39:56;;;;;;;8.70;3.70;;;;;;;8.38;90.18;100851.22;5044736;28;20132;-78
2023/12/20 06:42:23;;;;;;;7.60;3.70;;;;;;;8.40;89.94;100857.38;5047832;28;20385;-79
2023/12/20 06:44:48;;;;;;;9.82;3.88;;;;;;;8.41;90.42;100869.63;5046260;28;20469;-79
2023/12/20 06:47:14;;;;;;;13.57;4.43;;;;;;;8.41;89.76;100874.88;5048844;28;20066;-79
2023/12/20 06:49:40;;;;;;;8.02;3.60;;;;;;;8.43;89.95;100875.78;5048079;28;20040;-79
2023/12/20 06:52:05;;;;;;;8.80;3.53;;;;;;;8.43;89.93;100875.78;5047239;28;20033;-79
2023/12/20 06:54:31;;;;;;;10.25;3.20;;;;;;;8.44;90.05;100880.16;5047818;28;20074;-78
2023/12/20 06:56:56;;;;;;;9.47;3.47;;;;;;;8.44;90.22;100883.69;5047494;28;20056;-78
2023/12/20 06:59:22;;;;;;;9.10;3.70;;;;;;;8.48;90.11;100895.09;5048629;28;20112;-78
2023/12/20 07:01:48;;;;;;;7.83;3.63;;;;;;;8.49;90.56;100894.22;5049547;28;20040;-78
2023/12/20 07:04:14;;;;;;;8.97;3.70;;;;;;;8.53;90.47;100905.72;5047599;28;20336;-77
2023/12/20 07:06:39;;;;;;;6.47;2.90;;;;;;;8.54;90.24;100904.84;5048493;28;20033;-78
2023/12/20 07:09:05;;;;;;;5.47;2.10;;;;;;;8.54;90.27;100908.34;5048331;28;20060;-77
2023/12/20 07:11:30;;;;;;;5.47;1.80;;;;;;;8.56;90.19;100908.38;5048582;28;20320;-77
2023/12/20 07:13:55;;;;;;;5.73;1.77;;;;;;;8.55;89.86;100915.34;5046687;28;20025;-77
2023/12/20 07:16:22;;;;;;;5.40;2.20;;;;;;;8.56;90.52;100922.41;5043259;28;20030;-77
2023/12/20 07:18:48;;;;;;;4.13;1.50;;;;;;;8.57;90.55;100939.91;5042144;28;20028;-79
2023/12/20 07:21:13;;;;;;;5.30;1.60;;;;;;;8.57;90.38;100945.16;5046150;28;20029;-78
2023/12/20 07:23:38;;;;;;;5.80;2.00;;;;;;;8.60;90.44;100941.69;5045667;28;20112;-82
2023/12/20 07:26:04;;;;;;;5.80;1.83;;;;;;;8.59;90.18;100948.69;5047015;28;20052;-77
2023/12/20 07:28:29;;;;;;;5.30;2.00;;;;;;;8.59;89.89;100959.19;5046599;28;20037;-79
2023/12/20 07:30:55;;;;;;;5.57;1.90;;;;;;;8.57;90.33;100960.91;5044211;28;20033;-76
2023/12/20 07:33:20;;;;;;;5.43;2.00;;;;;;;8.58;89.97;100962.69;5048201;28;20125;-78
2023/12/20 07:35:45;;;;;;;4.73;1.83;;;;;;;8.57;89.98;100970.50;5050213;28;20040;-77
2023/12/20 07:38:12;;;;;;;5.00;1.83;;;;;;;8.55;89.82;100973.09;5052947;28;20021;-77
2023/12/20 07:40:37;;;;;;;4.97;1.98;;;;;;;8.53;89.86;100982.69;5052648;28;20037;-84
2023/12/20 07:43:03;;;;;;;4.93;2.23;;;;;;;8.54;89.72;100986.22;5049754;28;20036;-77
2023/12/20 07:45:28;;;;;;;5.47;1.88;;;;;;;8.51;89.72;100994.91;5031820;28;20029;-77
2023/12/20 07:47:54;;;;;;;5.77;2.20;;;;;;;8.51;89.46;101007.19;5045311;28;20037;-77
2023/12/20 07:50:19;;;;;;;4.60;1.77;;;;;;;8.47;89.41;101011.44;5052649;28;20471;-77
2023/12/20 07:52:45;;;;;;;5.27;2.10;;;;;;;8.44;89.48;101019.28;5052514;28;20028;-77
2023/12/20 07:55:10;;;;;;;4.57;1.50;;;;;;;8.44;89.40;101022.81;5052639;28;20060;-77
2023/12/20 07:57:36;;;;;;;5.03;1.77;;;;;;;8.44;89.22;101040.28;5052363;28;20112;-76
2023/12/20 08:00:03;;;;;;;4.10;1.60;;;;;;;8.44;89.22;101037.66;5052084;28;20432;-77
2023/12/20 08:02:29;;;;;;;6.47;1.87;;;;;;;8.42;89.07;101040.22;5052212;28;20062;-77
2023/12/20 08:04:54;;;;;;;6.30;2.42;;;;;;;8.41;88.89;101053.34;5052035;28;20033;-76
2023/12/20 08:07:19;;;;;;;4.77;1.73;;;;;;;8.41;88.88;101053.34;5051994;28;20041;-76
2023/12/20 08:09:45;;;;;;;4.73;1.90;;;;;;;8.41;88.83;101063.84;5051942;28;20109;-76
2023/12/20 08:12:11;;;;;;;6.00;2.10;;;;;;;8.39;88.88;101070.81;5052072;28;20505;-76
2023/12/20 08:14:37;;;;;;;5.55;2.30;;;;;;;8.38;88.63;101077.78;5052012;28;20032;-77
2023/12/20 08:17:02;;;;;;;6.53;2.30;;;;;;;8.39;88.81;101083.94;5052264;28;20029;-76
2023/12/20 08:19:28;;;;;;;8.48;2.92;;;;;;;8.38;88.34;101084.78;5051800;28;20441;-77
2023/12/20 08:21:53;;;;;;;6.00;2.13;;;;;;;8.36;88.49;101090.00;5051330;28;20037;-77
2023/12/20 08:24:18;;;;;;;8.07;2.37;;;;;;;8.35;88.49;101087.38;5050909;28;20583;-77
2023/12/20 08:26:45;;;;;;;7.20;2.10;;;;;;;8.31;88.12;101100.41;5051229;28;20057;-76
2023/12/20 08:29:13;;;;;;;6.30;2.00;;;;;;;8.33;88.39;101103.97;5051212;28;20056;-77
2023/12/20 08:31:38;;;;;;;5.55;2.17;;;;;;;8.32;88.20;101109.19;5051709;28;20588;-78
2023/12/20 08:34:04;;;;;;;7.27;2.80;;;;;;;8.32;88.18;101114.41;5051653;28;20128;-77
2023/12/20 08:36:29;;;;;;;5.50;2.43;;;;;;;8.31;88.17;101121.41;5051772;28;20170;-76
2023/12/20 08:38:55;;;;;;;8.23;3.20;;;;;;;8.33;88.27;101129.31;5051696;28;20267;-77
2023/12/20 08:41:20;;;;;;;6.83;2.80;;;;;;;8.33;88.12;101134.56;5050439;28;20025;-77
2023/12/20 08:43:46;;;;;;;5.57;2.15;;;;;;;8.32;87.86;101145.91;5050906;28;20503;-77
2023/12/20 08:46:12;;;;;;;8.20;2.10;;;;;;;8.32;87.92;101149.44;5051318;28;20025;-76
2023/12/20 08:48:37;;;;;;;5.20;2.22;;;;;;;8.32;87.77;101151.16;5051115;28;20071;-77
2023/12/20 08:51:03;;;;;;;4.70;2.00;;;;;;;8.32;87.65;101161.66;5051342;28;20086;-77
2023/12/20 08:53:29;;;;;;;4.90;2.00;;;;;;;8.32;87.51;101164.28;5051433;28;20045;-77
2023/12/20 08:55:54;;;;;;;5.47;1.90;;;;;;;8.33;87.64;101156.47;5051361;28;20052;-77
2023/12/20 08:58:19;;;;;;;6.30;2.30;;;;;;;8.35;87.59;101168.72;5050944;28;20021;-77
2023/12/20 09:00:45;;;;;;;6.50;2.17;;;;;;;8.35;87.51;101179.22;5051094;28;20124;-77
2023/12/20 09:03:10;;;;;;;8.33;2.23;;;;;;;8.39;87.32;101183.66;5051130;28;20487;-77
2023/12/20 09:05:36;;;;;;;5.77;2.47;;;;;;;8.40;87.09;101177.56;5050973;28;20260;-76
2023/12/20 09:08:01;;;;;;;6.73;2.27;;;;;;;8.40;87.15;101186.31;5051392;28;20191;-76
2023/12/20 09:10:26;;;;;;;6.50;2.10;;;;;;;8.43;87.07;101196.00;5051118;28;20329;-77
2023/12/20 09:12:56;;;;;;;6.20;2.00;;;;;;;8.45;86.80;101196.91;5050886;28;20036;-76
2023/12/20 09:15:26;;;;;;;5.60;2.03;;;;;;;8.46;86.85;101202.19;5050631;28;20351;-76
2023/12/20 09:17:52;;;;;;;5.82;2.50;;;;;;;8.49;86.50;101203.97;5050622;28;20663;-76
2023/12/20 09:20:17;;;;;;;6.93;2.80;;;;;;;8.51;86.34;101206.69;5051030;28;20172;-76
2023/12/20 09:22:43;;;;;;;5.97;2.10;;;;;;;8.53;86.77;101213.72;5050737;28;20032;-80
2023/12/20 09:25:10;;;;;;;5.90;2.25;;;;;;;8.58;86.55;101219.97;5049311;28;20040;-77
2023/12/20 09:27:36;;;;;;;5.57;2.30;;;;;;;8.62;86.39;101223.50;5050175;28;20408;-77
2023/12/20 09:30:03;;;;;;;5.50;2.38;;;;;;;8.64;86.35;101234.06;5050410;28;20021;-76
2023/12/20 09:32:29;;;;;;;5.63;2.35;;;;;;;8.66;86.23;101240.22;5050652;28;20515;-76
2023/12/20 09:34:55;;;;;;;5.80;2.07;;;;;;;8.67;86.23;101239.38;5050573;28;20033;-77
2023/12/20 09:37:20;;;;;;;9.43;1.90;;;;;;;8.68;86.01;101246.38;5050521;28;20025;-76
2023/12/20 09:39:45;;;;;;;6.30;2.10;;;;;;;8.67;85.75;101249.88;5050383;28;20033;-76
2023/12/20 09:42:16;;;;;;;5.27;1.67;;;;;;;8.66;85.64;101250.72;5050259;28;20460;-76
2023/12/20 09:44:42;;;;;;;7.47;1.80;;;;;;;8.64;85.28;101255.06;5049980;28;20029;-77
2023/12/20 09:47:08;;;;;;;9.37;2.17;;;;;;;8.64;85.81;101260.31;5050052;28;20037;-77
2023/12/20 09:49:34;;;;;;;6.57;1.77;;;;;;;8.64;85.38;101261.19;5050266;28;20090;-77
2023/12/20 09:52:01;;;;;;;7.18;1.50;;;;;;;8.66;85.32;101258.59;5048692;28;20569;-76
2023/12/20 09:54:28;;;;;;;6.80;1.40;;;;;;;8.65;84.97;101254.22;5050194;28;20025;-77
2023/12/20 09:56:54;;;;;;;4.15;1.33;;;;;;;8.64;84.91;101257.69;5050108;28;20044;-77
2023/12/20 09:59:20;;;;;;;7.37;1.63;;;;;;;8.66;84.70;101253.34;5050006;28;20441;-75
2023/12/20 10:01:45;;;;;;;6.57;2.10;;;;;;;8.67;84.62;101250.75;5049908;28;20025;-77
2023/12/20 10:04:12;;;;;;;4.40;1.60;;;;;;;8.71;84.43;101259.56;5050156;28;20286;-76
2023/12/20 10:06:42;;;;;;;4.60;1.60;;;;;;;8.72;84.51;101266.59;5049591;28;20468;-77
2023/12/20 10:09:11;;;;;;;4.72;1.23;;;;;;;8.75;84.34;101266.66;5049783;28;20039;-77
2023/12/20 10:11:38;;;;;;;4.17;1.40;;;;;;;8.77;84.44;101259.69;5049875;28;20029;-77
2023/12/20 10:14:04;;;;;;;7.20;1.75;;;;;;;8.80;84.39;101262.41;5049093;28;20028;-77
2023/12/20 10:16:30;;;;;;;5.28;1.75;;;;;;;8.85;84.36;101258.13;5049801;28;20025;-77
2023/12/20 10:18:56;;;;;;;5.50;2.00;;;;;;;8.92;84.40;101259.09;5049924;28;20083;-74
2023/12/20 10:21:28;;;;;;;7.03;1.70;;;;;;;8.96;83.89;101260.94;5049845;28;20346;-77
2023/12/20 10:23:55;;;;;;;5.05;1.63;;;;;;;9.02;84.00;101261.06;5048608;28;20025;-76
2023/12/20 10:26:27;;;;;;;4.65;1.60;;;;;;;9.03;83.67;101264.53;5049381;28;20076;-76
2023/12/20 10:29:01;;;;;;;7.35;2.00;;;;;;;9.04;83.40;101266.31;5049211;28;20079;-76
2023/12/20 10:31:31;;;;;;;6.80;1.83;;;;;;;9.05;83.62;101266.34;5049604;28;20021;-76
2023/12/20 10:33:58;;;;;;;5.93;1.85;;;;;;;9.08;83.46;101273.41;5049513;28;20114;-77
2023/12/20 10:36:26;;;;;;;7.00;1.65;;;;;;;9.09;83.35;101269.94;5049547;28;20087;-77
2023/12/20 10:38:53;;;;;;;6.72;1.92;;;;;;;9.09;83.54;101262.06;5049702;28;20021;-77
2023/12/20 10:41:30;;;;;;;5.38;1.80;;;;;;;9.09;82.99;101255.91;5049460;28;20029;-77
2023/12/20 10:43:59;;;;;;;5.67;2.07;;;;;;;9.11;83.48;101247.19;5048989;28;20023;-77
2023/12/20 10:46:26;;;;;;;5.28;1.73;;;;;;;9.16;83.06;101245.53;5049333;28;20259;-77
2023/12/20 10:48:53;;;;;;;6.60;1.77;;;;;;;9.26;82.53;101235.16;5049221;28;20114;-77
2023/12/20 10:51:21;;;;;;;7.15;1.92;;;;;;;9.27;81.82;101239.56;5049433;28;20063;-76
2023/12/20 10:53:50;;;;;;;5.07;1.25;;;;;;;9.39;81.34;101233.63;5049433;28;20029;-77
2023/12/20 10:56:20;;;;;;;6.90;1.10;;;;;;;9.45;81.66;101226.72;5049848;28;20520;-77
2023/12/20 10:58:47;;;;;;;5.10;1.60;;;;;;;9.52;81.33;101235.59;5049179;28;20031;-77
2023/12/20 11:01:14;;;;;;;5.30;1.50;;;;;;;9.60;81.12;101233.09;5049204;28;20056;-78
2023/12/20 11:03:44;;;;;;;9.77;1.70;;;;;;;9.65;80.96;101228.78;5049126;28;20111;-77
2023/12/20 11:06:15;;;;;;;5.35;1.75;;;;;;;9.80;80.73;101233.41;5052886;28;20039;-77
2023/12/20 11:08:55;;;;;;;6.93;1.80;;;;;;;9.90;80.16;101230.06;5053525;28;20028;-76
2023/12/20 11:11:44;;;;;;;6.78;1.65;;;;;;;10.00;79.72;101224.91;5052910;28;20021;-78
2023/12/20 11:14:23;;;;;;;8.00;2.10;;;;;;;10.11;80.15;101227.69;5052798;28;20040;-77
2023/12/20 11:16:49;;;;;;;7.00;1.55;;;;;;;10.12;79.87;101218.94;5053213;28;20029;-77
2023/12/20 11:19:14;;;;;;;6.07;1.50;;;;;;;10.07;80.11;101218.00;5053079;28;20025;-78
2023/12/20 11:21:40;;;;;;;8.57;1.80;;;;;;;9.96;78.48;101218.72;5052965;28;20022;-77